createdAt,value
2019-04-04T00:03:35.548Z,61.06
2019-04-04T00:08:40.981Z,62.27
2019-04-04T00:13:45.556Z,63.28
2019-04-04T00:18:50.087Z,64.09
2019-04-04T00:23:54.844Z,64.81
2019-04-04T00:29:01.343Z,65.38
2019-04-04T00:34:05.808Z,65.73
2019-04-04T00:39:10.375Z,66.35
2019-04-04T00:44:15.086Z,66.53
2019-04-04T00:49:19.648Z,66.70
2019-04-04T00:54:25.145Z,66.27
2019-04-04T00:59:29.659Z,66.27
2019-04-04T01:04:34.219Z,66.18
2019-04-04T01:09:39.723Z,66.46
2019-04-04T01:14:44.419Z,67.55
2019-04-04T01:19:49.794Z,68.45
2019-04-04T01:24:54.591Z,69.34
2019-04-04T01:29:59.199Z,69.87
2019-04-04T01:35:04.994Z,70.47
2019-04-04T01:40:09.545Z,70.91
2019-04-04T01:45:14.344Z,71.15
2019-04-04T01:50:18.935Z,71.11
2019-04-04T01:55:23.441Z,70.74
2019-04-04T02:00:27.873Z,70.54
2019-04-04T02:05:32.327Z,70.17
2019-04-04T02:10:36.844Z,69.64
2019-04-04T02:15:42.847Z,69.26
2019-04-04T02:20:47.560Z,68.94
2019-04-04T02:25:51.998Z,68.74
2019-04-04T02:30:56.520Z,68.78
2019-04-04T02:36:02.393Z,68.80
2019-04-04T02:41:09.050Z,69.11
2019-04-04T02:46:13.560Z,69.46
2019-04-04T02:51:18.403Z,69.62
2019-04-04T02:56:22.923Z,69.60
2019-04-04T03:01:31.630Z,69.47
2019-04-04T03:06:33.750Z,69.19
2019-04-04T03:11:40.432Z,68.59
2019-04-04T03:16:45.085Z,68.34
2019-04-04T03:21:54.765Z,68.02
2019-04-04T03:26:56.730Z,67.54
2019-04-04T03:32:01.164Z,67.41
2019-04-04T03:37:06.579Z,67.41
2019-04-04T03:42:11.888Z,67.32
2019-04-04T03:47:16.371Z,67.28
2019-04-04T03:52:20.866Z,67.27
2019-04-04T03:57:25.741Z,67.17
2019-04-04T04:02:30.169Z,67.53
2019-04-04T04:07:34.733Z,67.73
2019-04-04T04:12:42.690Z,67.85
2019-04-04T04:17:46.549Z,68.42
2019-04-04T04:22:52.353Z,68.71
2019-04-04T04:27:56.958Z,68.74
2019-04-04T04:33:01.509Z,68.42
2019-04-04T04:38:05.979Z,68.50
2019-04-04T04:43:10.433Z,67.96
2019-04-04T04:48:14.967Z,67.69
2019-04-04T04:53:19.696Z,67.41
2019-04-04T04:58:24.080Z,67.13
2019-04-04T05:03:28.698Z,65.91
2019-04-04T05:08:33.208Z,64.80
2019-04-04T05:13:37.787Z,64.00
2019-04-04T05:18:42.512Z,63.29
2019-04-04T05:23:47.734Z,62.90
2019-04-04T05:28:52.271Z,62.67
2019-04-04T05:33:58.739Z,62.34
2019-04-04T05:39:07.680Z,62.15
2019-04-04T05:44:14.280Z,61.98
2019-04-04T05:49:19.781Z,61.98
2019-04-04T05:54:24.254Z,62.16
2019-04-04T05:59:28.733Z,62.12
2019-04-04T06:04:33.322Z,62.09
2019-04-04T06:09:37.806Z,61.90
2019-04-04T06:14:42.249Z,61.54
2019-04-04T06:19:46.734Z,59.63
2019-04-04T06:24:52.366Z,58.34
2019-04-04T06:29:56.889Z,57.60
2019-04-04T06:35:01.374Z,56.89
2019-04-04T06:40:07.579Z,56.14
2019-04-04T06:45:15.155Z,55.62
2019-04-04T06:50:18.484Z,54.77
2019-04-04T06:55:22.919Z,54.82
2019-04-04T07:00:27.553Z,54.35
2019-04-04T07:05:31.987Z,53.11
2019-04-04T07:10:36.487Z,52.47
2019-04-04T07:15:46.783Z,51.92
2019-04-04T07:20:48.339Z,51.64
2019-04-04T07:25:53.734Z,50.69
2019-04-04T07:30:59.339Z,50.88
2019-04-04T07:36:04.329Z,49.89
2019-04-04T07:41:09.083Z,49.89
2019-04-04T07:46:16.858Z,48.10
2019-04-04T07:51:20.037Z,48.00
2019-04-04T07:56:24.591Z,47.59
2019-04-04T08:01:29.236Z,47.71
2019-04-04T08:06:33.692Z,47.28
2019-04-04T08:11:38.234Z,46.36
2019-04-04T08:16:42.725Z,46.41
2019-04-04T08:21:47.289Z,45.22
2019-04-04T08:26:51.997Z,45.58
2019-04-04T08:31:56.559Z,45.16
2019-04-04T08:37:01.058Z,44.97
2019-04-04T08:42:05.753Z,43.91
2019-04-04T08:47:10.258Z,43.49
2019-04-04T08:52:16.853Z,43.28
2019-04-04T08:57:21.883Z,43.12
2019-04-04T09:02:26.481Z,42.49
2019-04-04T09:07:30.912Z,42.82
2019-04-04T09:12:35.567Z,42.11
2019-04-04T09:17:40.008Z,42.13
2019-04-04T09:22:44.507Z,42.23
2019-04-04T09:27:49.148Z,41.46
2019-04-04T09:32:53.572Z,42.27
2019-04-04T09:37:58.045Z,41.29
2019-04-04T09:43:02.525Z,40.92
2019-04-04T09:48:07.095Z,40.21
2019-04-04T09:53:12.567Z,40.41
2019-04-04T09:58:17.114Z,40.34
2019-04-04T10:03:21.603Z,40.12
2019-04-04T10:08:26.131Z,39.77
2019-04-04T10:13:30.562Z,39.60
2019-04-04T10:18:35.094Z,39.42
2019-04-04T10:23:39.766Z,38.84
2019-04-04T10:28:44.354Z,38.18
2019-04-04T10:33:49.069Z,38.46
2019-04-04T10:38:55.615Z,38.10
2019-04-04T10:44:00.078Z,38.17
2019-04-04T10:49:04.629Z,37.00
2019-04-04T10:54:09.052Z,35.99
2019-04-04T10:59:13.556Z,34.81
2019-04-04T11:04:18.034Z,33.99
2019-04-04T11:09:22.562Z,34.76
2019-04-04T11:14:27.019Z,33.52
2019-04-04T11:19:31.682Z,32.92
2019-04-04T11:24:36.166Z,33.29
2019-04-04T11:29:40.710Z,32.32
2019-04-04T11:34:52.974Z,30.48
2019-04-04T11:39:54.926Z,30.28
2019-04-04T11:44:57.684Z,29.81
2019-04-04T11:50:03.633Z,28.61
2019-04-04T11:55:08.510Z,27.68
2019-04-04T12:00:15.242Z,27.96
2019-04-04T12:05:20.309Z,27.16
2019-04-04T12:10:25.005Z,27.49
2019-04-04T12:15:29.522Z,27.29
2019-04-04T12:20:35.255Z,26.51
2019-04-04T12:25:39.681Z,26.60
2019-04-04T12:30:44.101Z,26.31
2019-04-04T12:35:48.784Z,25.85
2019-04-04T12:40:53.218Z,24.85
2019-04-04T12:45:59.727Z,25.56
2019-04-04T12:51:04.147Z,25.37
2019-04-04T12:56:08.648Z,24.74
2019-04-04T13:01:13.277Z,23.93
2019-04-04T13:06:17.890Z,24.02
2019-04-04T13:11:22.413Z,23.97
2019-04-04T13:16:27.174Z,23.65
2019-04-04T13:21:31.783Z,23.33
2019-04-04T13:26:36.248Z,23.67
2019-04-04T13:31:40.808Z,24.27
2019-04-04T13:36:45.377Z,22.70
2019-04-04T13:41:50.055Z,23.06
2019-04-04T13:46:54.644Z,23.15
2019-04-04T13:51:59.237Z,23.19
2019-04-04T13:57:03.783Z,23.04
2019-04-04T14:02:08.301Z,23.22
2019-04-04T14:07:12.846Z,22.71
2019-04-04T14:12:17.284Z,22.68
2019-04-04T14:17:21.742Z,22.70
2019-04-04T14:22:26.305Z,21.96
2019-04-04T14:27:30.801Z,21.68
2019-04-04T14:32:35.451Z,20.63
2019-04-04T14:37:39.909Z,21.60
2019-04-04T14:42:44.405Z,21.16
2019-04-04T14:47:48.888Z,22.13
2019-04-04T14:52:53.370Z,22.77
2019-04-04T14:57:58.065Z,22.80
2019-04-04T15:03:02.605Z,22.41
2019-04-04T15:08:07.200Z,23.19
2019-04-04T15:13:11.753Z,22.59
2019-04-04T15:18:16.207Z,22.53
2019-04-04T15:23:20.826Z,22.64
2019-04-04T15:28:26.189Z,22.14
2019-04-04T15:33:30.974Z,23.18
2019-04-04T15:38:35.471Z,22.99
2019-04-04T15:43:39.969Z,22.72
2019-04-04T15:48:44.618Z,22.80
2019-04-04T15:53:49.052Z,24.92
2019-04-04T15:58:53.495Z,27.01
2019-04-04T16:03:57.965Z,28.09
2019-04-04T16:09:03.819Z,28.20
2019-04-04T16:14:08.852Z,28.71
2019-04-04T16:19:13.371Z,29.75
2019-04-04T16:24:17.926Z,30.03
2019-04-04T16:29:22.438Z,30.91
2019-04-04T16:34:27.017Z,31.34
2019-04-04T16:39:31.530Z,31.92
2019-04-04T16:44:36.080Z,32.22
2019-04-04T16:49:40.549Z,32.73
2019-04-04T16:54:45.005Z,33.50
2019-04-04T16:59:50.572Z,34.02
2019-04-04T17:04:55.065Z,34.47
2019-04-04T17:09:59.605Z,34.94
2019-04-04T17:15:06.582Z,35.36
2019-04-04T17:20:12.111Z,36.40
2019-04-04T17:25:16.879Z,36.89
2019-04-04T17:30:22.124Z,37.45
2019-04-04T17:35:26.827Z,37.77
2019-04-04T17:40:31.268Z,38.20
2019-04-04T17:45:35.840Z,38.68
2019-04-04T17:50:40.369Z,39.10
2019-04-04T17:55:47.766Z,39.32
2019-04-04T18:00:51.554Z,39.66
2019-04-04T18:05:56.128Z,40.01
2019-04-04T18:11:00.772Z,40.06
2019-04-04T18:16:05.393Z,40.06
2019-04-04T18:21:11.161Z,39.82
2019-04-04T18:26:15.601Z,39.84
2019-04-04T18:31:20.231Z,39.83
2019-04-04T18:36:24.816Z,39.59
2019-04-04T18:41:30.268Z,39.83
2019-04-04T18:46:35.726Z,40.08
2019-04-04T18:51:41.398Z,39.42
2019-04-04T18:56:45.832Z,39.74
2019-04-04T19:01:50.450Z,39.71
2019-04-04T19:06:55.152Z,40.08
2019-04-04T19:11:59.717Z,40.41
2019-04-04T19:17:04.465Z,40.56
2019-04-04T19:22:09.205Z,41.00
2019-04-04T19:27:14.145Z,41.12
2019-04-04T19:32:18.851Z,41.59
2019-04-04T19:37:23.518Z,42.00
2019-04-04T19:42:29.046Z,42.46
2019-04-04T19:47:33.749Z,42.62
2019-04-04T19:52:38.558Z,42.89
2019-04-04T19:57:42.997Z,43.14
2019-04-04T20:02:48.567Z,43.49
2019-04-04T20:07:53.122Z,44.11
2019-04-04T20:12:57.691Z,44.17
2019-04-04T20:18:03.214Z,44.86
2019-04-04T20:23:07.814Z,44.86
2019-04-04T20:28:12.523Z,44.97
2019-04-04T20:33:17.224Z,44.92
2019-04-04T20:38:21.812Z,46.01
2019-04-04T20:43:26.409Z,46.18
2019-04-04T20:48:30.997Z,46.05
2019-04-04T20:53:35.518Z,46.05
2019-04-04T20:58:41.147Z,46.34
2019-04-04T21:03:45.635Z,46.43
2019-04-04T21:08:50.271Z,46.31
2019-04-04T21:13:56.514Z,46.40
2019-04-04T21:19:00.871Z,46.95
2019-04-04T21:24:05.797Z,47.08
2019-04-04T21:29:10.245Z,47.13
2019-04-04T21:34:17.120Z,47.24
2019-04-04T21:39:21.048Z,47.29
2019-04-04T21:44:25.588Z,47.24
2019-04-04T21:49:30.106Z,47.50
2019-04-04T21:54:36.722Z,47.74
2019-04-04T21:59:41.400Z,47.99
2019-04-04T22:04:45.914Z,48.26
2019-04-04T22:09:50.749Z,48.88
2019-04-04T22:14:55.273Z,48.73
2019-04-04T22:19:59.993Z,48.68
2019-04-04T22:25:06.709Z,49.10
2019-04-04T22:30:11.626Z,49.46
2019-04-04T22:35:16.278Z,50.00
2019-04-04T22:40:21.771Z,49.98
2019-04-04T22:45:26.257Z,49.97
2019-04-04T22:50:30.801Z,50.23
2019-04-04T22:55:35.371Z,50.45
2019-04-04T23:00:39.796Z,50.76
2019-04-04T23:05:44.334Z,51.39
2019-04-04T23:10:49.845Z,52.26
2019-04-04T23:15:54.451Z,52.85
2019-04-04T23:20:58.903Z,53.04
2019-04-04T23:26:03.516Z,53.42
2019-04-04T23:31:08.184Z,53.20
2019-04-04T23:36:12.645Z,52.89
2019-04-04T23:41:18.236Z,52.86
2019-04-04T23:46:22.707Z,52.66
2019-04-04T23:51:27.293Z,52.73
2019-04-04T23:56:31.911Z,52.58
